Time;durP1;ratioP1;P1;durP2;ratioP2;P2;SDS_P1;SDS_P2;PMS_P1;PMS_P2;Temp;Humidity;BMP_temperature;BMP_pressure;BME280_temperature;BME280_humidity;BME280_pressure;Samples;Min_cycle;Max_cycle;Signal;HPM_P1;HPM_P2
2022/03/27 00:02:20;;;;;;;0.00;0.00;;;8.10;99.90;;;;;;5055190;28;20045;-78
2022/03/27 00:04:46;;;;;;;0.00;0.00;;;8.10;99.90;;;;;;5055190;28;20045;-78
2022/03/27 00:07:12;;;;;;;0.63;0.17;;;8.00;99.90;;;;;;5038678;28;20068;-79
2022/03/27 00:09:37;;;;;;;0.00;0.00;;;8.00;99.90;;;;;;5038475;28;20469;-79
2022/03/27 00:12:04;;;;;;;0.03;0.03;;;8.00;99.90;;;;;;5054974;28;20124;-78
2022/03/27 00:14:30;;;;;;;0.00;0.00;;;8.00;99.90;;;;;;5055109;28;20102;-79
2022/03/27 00:16:57;;;;;;;0.00;0.00;;;7.90;99.90;;;;;;5054816;28;20048;-78
2022/03/27 00:19:23;;;;;;;0.00;0.00;;;7.80;99.90;;;;;;5038065;28;20053;-78
2022/03/27 00:21:49;;;;;;;0.10;0.10;;;7.80;99.90;;;;;;5038685;28;20060;-79
2022/03/27 00:24:15;;;;;;;0.00;0.00;;;7.80;99.90;;;;;;5055066;28;20424;-78
2022/03/27 00:26:40;;;;;;;0.00;0.00;;;7.80;99.90;;;;;;5055111;28;20057;-79
2022/03/27 00:29:06;;;;;;;0.00;0.00;;;7.70;99.90;;;;;;5054955;28;20043;-79
2022/03/27 00:31:35;;;;;;;0.10;0.10;;;7.70;99.90;;;;;;5055228;28;20041;-78
2022/03/27 00:34:02;;;;;;;3.40;0.00;;;7.60;99.90;;;;;;5038590;28;20601;-79
2022/03/27 00:36:28;;;;;;;0.03;0.00;;;7.70;99.90;;;;;;5038509;28;20158;-78
2022/03/27 00:38:54;;;;;;;0.00;0.00;;;7.60;99.90;;;;;;5038266;28;20091;-79
2022/03/27 00:41:20;;;;;;;0.00;0.00;;;7.60;99.90;;;;;;5055509;28;20052;-79
2022/03/27 00:43:46;;;;;;;0.30;0.13;;;7.50;99.90;;;;;;5054869;28;20056;-79
2022/03/27 00:46:12;;;;;;;0.03;0.03;;;7.50;99.90;;;;;;5038428;28;20393;-79
2022/03/27 00:48:38;;;;;;;0.10;0.10;;;7.40;99.90;;;;;;5054569;28;20040;-79
2022/03/27 00:51:05;;;;;;;0.10;0.00;;;7.40;99.90;;;;;;5054662;28;20089;-79
2022/03/27 00:53:31;;;;;;;5.93;0.10;;;7.30;99.90;;;;;;5054865;28;20508;-79
2022/03/27 00:55:57;;;;;;;0.10;0.00;;;7.30;99.90;;;;;;5055205;28;20048;-79
2022/03/27 00:58:23;;;;;;;0.00;0.00;;;7.20;99.90;;;;;;5053908;28;20392;-78
2022/03/27 01:00:48;;;;;;;0.20;0.00;;;7.10;99.90;;;;;;5054382;28;20408;-78
2022/03/27 01:03:20;;;;;;;0.20;0.00;;;7.10;99.90;;;;;;5054413;28;20055;-79
2022/03/27 01:05:48;;;;;;;0.00;0.00;;;7.00;99.90;;;;;;5037644;28;20045;-79
2022/03/27 01:08:14;;;;;;;0.10;0.10;;;6.90;99.90;;;;;;5037630;28;20045;-79
2022/03/27 01:10:41;;;;;;;0.00;0.00;;;6.90;99.90;;;;;;5054385;28;20049;-79
2022/03/27 01:13:18;;;;;;;0.00;0.00;;;6.90;99.90;;;;;;5053849;28;20045;-79
2022/03/27 01:15:55;;;;;;;0.10;0.10;;;6.80;99.90;;;;;;5037195;28;20045;-79
2022/03/27 01:18:22;;;;;;;0.75;0.10;;;6.80;99.90;;;;;;5037375;28;20384;-79
2022/03/27 01:20:48;;;;;;;0.00;0.00;;;6.80;99.90;;;;;;5053983;28;20045;-79
2022/03/27 01:23:15;;;;;;;1.10;0.00;;;6.70;99.90;;;;;;5037069;28;20056;-79
2022/03/27 01:25:43;;;;;;;0.00;0.00;;;6.70;99.90;;;;;;5053720;28;20048;-79
2022/03/27 01:28:12;;;;;;;0.95;0.52;;;6.60;99.90;;;;;;5053994;28;20047;-78
2022/03/27 01:30:38;;;;;;;0.00;0.00;;;6.60;99.90;;;;;;5053378;28;20052;-79
2022/03/27 01:33:05;;;;;;;0.00;0.00;;;6.50;99.90;;;;;;5037083;28;20061;-79
2022/03/27 01:35:32;;;;;;;0.03;0.00;;;6.50;99.90;;;;;;5037074;28;20102;-79
2022/03/27 01:37:58;;;;;;;1.20;0.10;;;6.50;99.90;;;;;;5053788;28;20396;-79
2022/03/27 01:40:23;;;;;;;0.35;0.25;;;6.50;99.90;;;;;;5053319;28;20132;-79
2022/03/27 01:42:52;;;;;;;0.20;0.10;;;6.50;99.90;;;;;;5052893;28;20045;-78
2022/03/27 01:45:18;;;;;;;0.90;0.17;;;6.50;99.90;;;;;;5053050;28;20045;-79
2022/03/27 01:47:44;;;;;;;2.30;0.52;;;6.40;99.90;;;;;;5052910;28;20516;-79
2022/03/27 01:50:10;;;;;;;0.22;0.22;;;6.40;99.90;;;;;;5052169;28;20052;-79
2022/03/27 01:52:36;;;;;;;0.95;0.32;;;6.30;99.90;;;;;;5036293;28;20057;-78
2022/03/27 01:55:06;;;;;;;0.08;0.08;;;6.30;99.90;;;;;;5052865;28;20179;-79
2022/03/27 01:57:31;;;;;;;0.10;0.10;;;6.30;99.90;;;;;;5035958;28;20136;-79
2022/03/27 01:59:57;;;;;;;0.00;0.00;;;6.30;99.90;;;;;;5053109;28;20133;-79
2022/03/27 02:02:25;;;;;;;0.35;0.20;;;6.20;99.90;;;;;;5036600;28;20060;-79
2022/03/27 02:04:52;;;;;;;0.10;0.05;;;6.20;99.90;;;;;;5053454;28;20049;-79
2022/03/27 02:07:19;;;;;;;0.00;0.00;;;6.20;99.90;;;;;;5052946;28;20045;-79
2022/03/27 02:09:45;;;;;;;0.00;0.00;;;6.20;99.90;;;;;;5036135;28;20051;-79
2022/03/27 02:12:12;;;;;;;0.38;0.30;;;6.20;99.90;;;;;;5036065;28;20052;-79
2022/03/27 02:14:38;;;;;;;0.10;0.10;;;6.00;99.90;;;;;;5052549;28;20048;-79
2022/03/27 02:17:04;;;;;;;0.20;0.20;;;6.00;99.90;;;;;;5052232;28;20051;-79
2022/03/27 02:19:29;;;;;;;0.00;0.00;;;6.00;99.90;;;;;;5036368;28;20099;-78
2022/03/27 02:21:56;;;;;;;0.03;0.00;;;5.80;99.90;;;;;;5052432;28;20047;-79
2022/03/27 02:24:21;;;;;;;0.20;0.00;;;5.90;99.90;;;;;;5035897;28;20053;-79
2022/03/27 02:26:49;;;;;;;0.10;0.10;;;5.80;99.90;;;;;;5051746;28;20052;-78
2022/03/27 02:29:16;;;;;;;0.10;0.03;;;5.70;99.90;;;;;;5052276;28;20377;-79
2022/03/27 02:31:43;;;;;;;0.22;0.15;;;5.70;99.90;;;;;;5036098;28;20074;-79
2022/03/27 02:34:09;;;;;;;0.00;0.00;;;5.60;99.90;;;;;;5035697;28;20099;-79
2022/03/27 02:36:34;;;;;;;0.00;0.00;;;5.60;99.90;;;;;;5052327;28;20091;-79
2022/03/27 02:39:00;;;;;;;0.70;0.43;;;5.60;99.90;;;;;;5052398;28;20066;-79
2022/03/27 02:41:26;;;;;;;0.10;0.10;;;5.50;99.90;;;;;;5052464;28;20040;-79
2022/03/27 02:43:51;;;;;;;0.05;0.05;;;5.40;99.90;;;;;;5051788;28;20041;-79
2022/03/27 02:46:17;;;;;;;0.38;0.38;;;5.50;99.90;;;;;;5052349;28;20052;-79
2022/03/27 02:48:42;;;;;;;0.00;0.00;;;5.40;99.90;;;;;;5052203;28;20041;-79
2022/03/27 02:51:08;;;;;;;0.35;0.30;;;5.40;99.90;;;;;;5052299;28;20077;-79
2022/03/27 02:53:34;;;;;;;0.50;0.30;;;5.30;99.90;;;;;;5052225;28;20441;-79
2022/03/27 02:56:00;;;;;;;0.00;0.00;;;5.40;99.90;;;;;;5052217;28;20082;-79
2022/03/27 02:58:26;;;;;;;0.85;0.17;;;5.40;99.90;;;;;;5051753;28;20488;-78
2022/03/27 03:00:52;;;;;;;0.00;0.00;;;5.30;99.90;;;;;;5051898;28;20059;-78
2022/03/27 03:03:18;;;;;;;0.95;0.22;;;5.30;99.90;;;;;;5052674;28;20041;-79
2022/03/27 03:05:44;;;;;;;0.10;0.10;;;5.30;99.90;;;;;;5052174;28;20064;-78
2022/03/27 03:08:11;;;;;;;0.65;0.10;;;5.30;99.90;;;;;;5035421;28;20061;-79
2022/03/27 03:10:38;;;;;;;0.10;0.10;;;5.30;99.90;;;;;;5051642;28;20140;-79
2022/03/27 03:13:05;;;;;;;0.28;0.20;;;5.30;99.90;;;;;;5051815;28;20502;-79
2022/03/27 03:15:31;;;;;;;0.28;0.17;;;5.30;99.90;;;;;;5051708;28;20056;-79
2022/03/27 03:17:57;;;;;;;0.10;0.10;;;5.30;99.90;;;;;;5035059;28;20045;-78
2022/03/27 03:20:24;;;;;;;0.05;0.00;;;5.30;99.90;;;;;;5035336;28;20457;-79
2022/03/27 03:22:50;;;;;;;4.82;0.40;;;5.30;99.90;;;;;;5051973;28;20051;-78
2022/03/27 03:25:15;;;;;;;3.67;0.22;;;5.30;99.90;;;;;;5051767;28;20132;-79
2022/03/27 03:27:41;;;;;;;0.35;0.20;;;5.30;99.90;;;;;;5035685;28;20119;-79
2022/03/27 03:30:07;;;;;;;1.25;0.32;;;5.30;99.90;;;;;;5035322;28;20056;-79
2022/03/27 03:32:35;;;;;;;0.10;0.10;;;5.30;99.90;;;;;;5052469;28;20060;-79
2022/03/27 03:35:01;;;;;;;0.00;0.00;;;5.20;99.90;;;;;;5052373;28;20045;-78
2022/03/27 03:37:27;;;;;;;0.88;0.17;;;5.20;99.90;;;;;;5053459;28;20064;-78
2022/03/27 03:39:53;;;;;;;0.05;0.05;;;5.20;99.90;;;;;;5055650;28;20419;-78
2022/03/27 03:42:19;;;;;;;0.17;0.17;;;5.10;99.90;;;;;;5056160;28;20045;-78
2022/03/27 03:44:44;;;;;;;0.30;0.30;;;5.20;99.90;;;;;;5038899;28;20128;-78
2022/03/27 03:47:10;;;;;;;4.90;0.38;;;5.10;99.90;;;;;;5055381;28;20089;-78
2022/03/27 03:49:37;;;;;;;0.00;0.00;;;5.10;99.90;;;;;;5038774;28;20087;-78
2022/03/27 03:52:03;;;;;;;0.00;0.00;;;5.00;99.90;;;;;;5038358;28;20045;-79
2022/03/27 03:54:29;;;;;;;0.75;0.32;;;5.00;99.90;;;;;;5038528;28;20045;-78
2022/03/27 03:56:54;;;;;;;0.95;0.40;;;5.00;99.90;;;;;;5038285;28;20136;-78
2022/03/27 03:59:20;;;;;;;0.00;0.00;;;5.00;99.90;;;;;;5054775;28;20088;-79
2022/03/27 04:01:46;;;;;;;0.00;0.00;;;5.00;99.90;;;;;;5055134;28;20049;-78
2022/03/27 04:04:11;;;;;;;0.00;0.00;;;4.90;99.90;;;;;;5038358;28;20443;-78
2022/03/27 04:06:37;;;;;;;0.17;0.17;;;4.90;99.90;;;;;;5054951;28;20060;-79
2022/03/27 04:09:03;;;;;;;0.70;0.15;;;4.90;99.90;;;;;;5054853;28;20041;-79
2022/03/27 04:11:28;;;;;;;0.40;0.40;;;4.90;99.90;;;;;;5054881;28;20048;-79
2022/03/27 04:13:54;;;;;;;0.40;0.40;;;4.90;99.90;;;;;;5038212;28;20100;-79
2022/03/27 04:16:19;;;;;;;0.00;0.00;;;4.90;99.90;;;;;;5055037;28;20047;-79
2022/03/27 04:18:47;;;;;;;0.00;0.00;;;4.90;99.90;;;;;;5037981;28;20405;-79
2022/03/27 04:21:12;;;;;;;0.30;0.28;;;4.90;99.90;;;;;;5055038;28;20049;-79
2022/03/27 04:23:38;;;;;;;0.00;0.00;;;4.90;99.90;;;;;;5054410;28;20182;-79
2022/03/27 04:26:04;;;;;;;0.00;0.00;;;4.90;99.90;;;;;;5054617;28;20037;-79
2022/03/27 04:28:30;;;;;;;1.08;0.43;;;4.80;99.90;;;;;;5054097;28;20045;-79
2022/03/27 04:30:57;;;;;;;0.00;0.00;;;4.80;99.90;;;;;;5038308;28;20139;-79
2022/03/27 04:33:22;;;;;;;0.10;0.10;;;4.80;99.90;;;;;;5054473;28;20045;-79
2022/03/27 04:35:48;;;;;;;0.05;0.05;;;4.80;99.90;;;;;;5037661;28;20095;-79
2022/03/27 04:38:14;;;;;;;0.28;0.28;;;4.70;99.90;;;;;;5054270;28;20049;-79
2022/03/27 04:40:39;;;;;;;0.00;0.00;;;4.70;99.90;;;;;;5037958;28;20080;-79
2022/03/27 04:43:05;;;;;;;0.00;0.00;;;4.70;99.90;;;;;;5054989;28;20041;-79
2022/03/27 04:45:31;;;;;;;0.00;0.00;;;4.80;99.90;;;;;;5054317;28;20472;-79
2022/03/27 04:47:57;;;;;;;0.20;0.20;;;4.70;99.90;;;;;;5054209;28;20094;-79
2022/03/27 04:50:23;;;;;;;0.20;0.20;;;4.60;99.90;;;;;;5036466;28;20141;-79
2022/03/27 04:52:48;;;;;;;0.45;0.00;;;4.70;99.90;;;;;;5037410;28;20396;-79
2022/03/27 04:55:14;;;;;;;0.00;0.00;;;4.70;99.90;;;;;;5054508;28;20128;-79
2022/03/27 04:57:41;;;;;;;0.90;0.32;;;4.70;99.90;;;;;;5037337;28;20493;-78
2022/03/27 05:00:11;;;;;;;0.52;0.15;;;4.70;99.90;;;;;;5053935;28;20405;-79
2022/03/27 05:02:44;;;;;;;0.00;0.00;;;4.70;99.90;;;;;;5053884;28;20091;-79
2022/03/27 05:05:11;;;;;;;0.00;0.00;;;4.60;99.90;;;;;;5053805;28;20052;-79
2022/03/27 05:07:42;;;;;;;0.00;0.00;;;4.60;99.90;;;;;;5053630;28;20049;-79
2022/03/27 05:10:09;;;;;;;0.10;0.10;;;4.60;99.90;;;;;;5037075;28;20045;-79
2022/03/27 05:12:35;;;;;;;0.20;0.05;;;4.60;99.90;;;;;;5053683;28;20472;-79
2022/03/27 05:15:01;;;;;;;0.47;0.47;;;4.60;99.90;;;;;;5053564;28;20128;-79
2022/03/27 05:17:27;;;;;;;0.00;0.00;;;4.60;99.90;;;;;;5053446;28;20041;-79
2022/03/27 05:19:53;;;;;;;2.20;0.00;;;4.50;99.90;;;;;;5036772;28;20477;-79
2022/03/27 05:22:18;;;;;;;0.00;0.00;;;4.50;99.90;;;;;;5036527;28;20398;-79
2022/03/27 05:24:45;;;;;;;0.30;0.30;;;4.50;99.90;;;;;;5053985;28;20374;-79
2022/03/27 05:27:12;;;;;;;0.00;0.00;;;4.50;99.90;;;;;;5053500;28;20045;-78
2022/03/27 05:29:37;;;;;;;0.00;0.00;;;4.50;99.90;;;;;;5053005;28;20048;-78
2022/03/27 05:32:04;;;;;;;0.30;0.10;;;4.50;99.90;;;;;;5053343;28;20041;-79
2022/03/27 05:34:29;;;;;;;0.00;0.00;;;4.50;99.90;;;;;;5053407;28;20106;-79
2022/03/27 05:36:55;;;;;;;0.10;0.10;;;4.50;99.90;;;;;;5053566;28;20053;-80
2022/03/27 05:39:21;;;;;;;0.20;0.00;;;4.50;99.90;;;;;;5036498;28;20060;-79
2022/03/27 05:41:46;;;;;;;0.00;0.00;;;4.60;99.90;;;;;;5053392;28;20073;-79
2022/03/27 05:44:12;;;;;;;0.00;0.00;;;4.60;99.90;;;;;;5053295;28;20041;-79
2022/03/27 05:46:38;;;;;;;0.52;0.52;;;4.70;99.90;;;;;;5053286;28;20053;-80
2022/03/27 05:49:03;;;;;;;0.10;0.10;;;4.60;99.90;;;;;;5036223;28;20053;-79
2022/03/27 05:51:29;;;;;;;0.00;0.00;;;4.70;99.90;;;;;;5036335;28;20157;-80
2022/03/27 05:53:55;;;;;;;0.00;0.00;;;4.70;99.90;;;;;;5036059;28;20109;-79
2022/03/27 05:56:20;;;;;;;0.00;0.00;;;4.80;99.90;;;;;;5036545;28;20439;-79
2022/03/27 05:58:46;;;;;;;2.20;1.35;;;4.90;99.90;;;;;;5052467;28;20060;-79
2022/03/27 06:01:12;;;;;;;0.00;0.00;;;4.90;99.90;;;;;;5035622;28;20048;-79
2022/03/27 06:03:37;;;;;;;0.08;0.05;;;5.00;99.90;;;;;;5035926;28;20088;-80
2022/03/27 06:06:06;;;;;;;0.00;0.00;;;5.10;99.90;;;;;;5035982;28;20147;-79
2022/03/27 06:08:32;;;;;;;0.20;0.03;;;5.20;99.90;;;;;;5052572;28;20122;-79
2022/03/27 06:10:57;;;;;;;0.00;0.00;;;5.30;99.90;;;;;;5036178;28;20099;-79
2022/03/27 06:13:23;;;;;;;0.85;0.10;;;5.40;99.90;;;;;;5052874;28;20053;-79
2022/03/27 06:15:50;;;;;;;0.00;0.00;;;5.50;99.90;;;;;;5052580;28;20045;-79
2022/03/27 06:18:16;;;;;;;0.00;0.00;;;5.60;99.90;;;;;;5052224;28;20381;-80
2022/03/27 06:20:42;;;;;;;0.00;0.00;;;5.60;99.90;;;;;;5035976;28;20060;-79
2022/03/27 06:23:08;;;;;;;1.40;0.75;;;5.70;99.90;;;;;;5052528;28;20106;-79
2022/03/27 06:25:34;;;;;;;0.00;0.00;;;5.80;99.90;;;;;;5052487;28;20473;-79
2022/03/27 06:28:00;;;;;;;0.00;0.00;;;5.80;99.90;;;;;;5036090;28;20156;-81
2022/03/27 06:30:28;;;;;;;0.10;0.00;;;5.90;99.90;;;;;;5035515;28;20467;-80
2022/03/27 06:32:54;;;;;;;1.10;0.68;;;6.00;99.90;;;;;;5035703;28;20083;-80
2022/03/27 06:35:22;;;;;;;3.30;0.70;;;6.10;99.90;;;;;;5052434;28;20080;-81
2022/03/27 06:37:48;;;;;;;0.10;0.10;;;6.10;99.90;;;;;;5036148;28;20056;-80
2022/03/27 06:40:15;;;;;;;0.00;0.00;;;6.20;99.90;;;;;;5035683;28;20485;-80
2022/03/27 06:42:43;;;;;;;0.60;0.00;;;6.20;99.90;;;;;;5051871;28;20420;-79
2022/03/27 06:45:11;;;;;;;0.00;0.00;;;6.30;99.90;;;;;;5035730;28;20049;-80
2022/03/27 06:47:38;;;;;;;0.10;0.10;;;6.30;99.90;;;;;;5035553;28;20127;-79
2022/03/27 06:50:07;;;;;;;0.15;0.15;;;6.30;99.90;;;;;;5051847;28;20041;-79
2022/03/27 06:52:34;;;;;;;0.15;0.13;;;6.40;99.90;;;;;;5052746;28;20044;-79
2022/03/27 06:55:00;;;;;;;0.20;0.20;;;6.50;99.90;;;;;;5035673;28;20064;-79
2022/03/27 06:57:26;;;;;;;0.38;0.38;;;6.40;99.90;;;;;;5051504;28;20049;-79
2022/03/27 07:05:22;;;;;;;0.10;0.10;;;6.80;99.90;;;;;;5052287;28;20092;-79
2022/03/27 07:07:49;;;;;;;0.80;0.43;;;6.90;99.90;;;;;;5035439;28;20110;-80
2022/03/27 07:10:15;;;;;;;0.38;0.00;;;7.00;99.90;;;;;;5051783;28;20059;-79
2022/03/27 07:12:42;;;;;;;0.00;0.00;;;7.00;99.90;;;;;;5053821;28;20045;-79
2022/03/27 07:15:09;;;;;;;0.00;0.00;;;7.00;99.90;;;;;;5056097;28;20048;-79
2022/03/27 07:17:55;;;;;;;0.52;0.52;;;7.10;99.90;;;;;;5055960;28;20103;-79
2022/03/27 07:20:26;;;;;;;1.30;0.77;;;7.10;99.90;;;;;;5038867;28;20382;-79
2022/03/27 07:22:54;;;;;;;0.10;0.10;;;7.10;99.90;;;;;;5055648;28;20503;-79
2022/03/27 07:25:21;;;;;;;0.38;0.20;;;7.10;99.90;;;;;;5039149;28;20087;-79
2022/03/27 07:27:48;;;;;;;0.55;0.13;;;7.10;99.90;;;;;;5056200;28;20049;-79
2022/03/27 07:30:14;;;;;;;0.00;0.00;;;7.20;99.90;;;;;;5055368;28;20052;-79
2022/03/27 07:32:39;;;;;;;18.27;1.77;;;7.30;99.90;;;;;;5038909;28;20079;-79
2022/03/27 07:35:09;;;;;;;0.20;0.20;;;7.40;99.90;;;;;;5055584;28;20049;-78
2022/03/27 07:37:36;;;;;;;2.50;2.30;;;7.40;99.90;;;;;;5038492;28;20037;-79
2022/03/27 07:40:04;;;;;;;0.08;0.00;;;7.50;99.90;;;;;;5055516;28;20041;-79
2022/03/27 07:42:34;;;;;;;5.38;1.35;;;7.60;99.90;;;;;;5055192;28;20504;-79
2022/03/27 07:45:00;;;;;;;1.95;1.20;;;7.60;99.90;;;;;;5038762;28;20065;-79
2022/03/27 07:47:26;;;;;;;0.50;0.50;;;7.50;99.90;;;;;;5054903;28;20064;-78
2022/03/27 07:49:52;;;;;;;1.13;0.40;;;7.60;99.90;;;;;;5054814;28;20071;-79
2022/03/27 07:52:17;;;;;;;1.17;0.70;;;7.70;99.90;;;;;;5055171;28;20052;-79
2022/03/27 07:54:43;;;;;;;0.25;0.03;;;7.80;99.90;;;;;;5038144;28;20469;-79
2022/03/27 07:57:09;;;;;;;0.98;0.80;;;8.00;99.90;;;;;;5054952;28;20127;-79
2022/03/27 07:59:34;;;;;;;0.85;0.85;;;8.30;99.90;;;;;;5054451;28;20163;-79
2022/03/27 08:02:01;;;;;;;0.00;0.00;;;8.50;99.90;;;;;;5055040;28;20053;-79
2022/03/27 08:04:27;;;;;;;4.45;0.65;;;8.60;99.90;;;;;;5054553;28;20119;-79
2022/03/27 08:06:53;;;;;;;0.00;0.00;;;8.60;99.90;;;;;;5054835;28;20084;-79
2022/03/27 08:09:18;;;;;;;0.43;0.43;;;8.80;99.90;;;;;;5054755;28;20130;-79
2022/03/27 08:11:45;;;;;;;0.22;0.22;;;8.90;99.90;;;;;;5038236;28;20469;-78
2022/03/27 08:14:11;;;;;;;0.88;0.40;;;9.20;99.90;;;;;;5055123;28;20051;-78
2022/03/27 08:16:37;;;;;;;0.35;0.35;;;9.50;99.90;;;;;;5054246;28;20037;-78
2022/03/27 08:19:04;;;;;;;0.00;0.00;;;9.70;99.90;;;;;;5054694;28;20045;-79
2022/03/27 08:21:30;;;;;;;0.90;0.25;;;10.00;99.90;;;;;;5038339;28;20045;-79
2022/03/27 08:23:56;;;;;;;0.35;0.13;;;10.20;99.90;;;;;;5054797;28;20090;-78
2022/03/27 08:29:07;;;;;;;;;;;10.50;99.90;;;;;;5054985;28;20067;-78
2022/03/27 08:31:33;;;;;;;0.55;0.28;;;10.40;99.90;;;;;;5038014;28;19921;-79
2022/03/27 08:33:59;;;;;;;0.15;0.10;;;10.20;99.90;;;;;;5054678;28;20041;-79
2022/03/27 08:36:27;;;;;;;1.75;0.52;;;10.00;99.90;;;;;;5037328;28;20474;-79
2022/03/27 08:38:54;;;;;;;4.72;0.65;;;10.00;99.90;;;;;;5054774;28;20436;-79
2022/03/27 08:41:24;;;;;;;1.27;0.70;;;9.80;99.90;;;;;;5037720;28;20102;-79
2022/03/27 08:43:58;;;;;;;1.08;0.40;;;9.70;99.90;;;;;;5037644;28;20051;-79
2022/03/27 08:46:33;;;;;;;1.52;0.50;;;9.70;99.90;;;;;;5037620;28;20409;-79
2022/03/27 08:49:26;;;;;;;0.32;0.32;;;9.90;99.90;;;;;;5037480;28;20046;-79
2022/03/27 08:52:08;;;;;;;0.15;0.15;;;10.00;99.90;;;;;;4980821;28;20400;-79
2022/03/27 08:54:58;;;;;;;1.15;0.55;;;10.00;99.90;;;;;;4996952;28;20148;-79
2022/03/27 08:57:37;;;;;;;0.20;0.20;;;10.10;99.90;;;;;;4996604;28;20088;-79
2022/03/27 09:00:04;;;;;;;0.63;0.57;;;10.40;99.90;;;;;;4997229;28;20501;-79
2022/03/27 09:02:30;;;;;;;0.22;0.20;;;10.60;99.90;;;;;;4996831;28;20069;-79
2022/03/27 09:04:56;;;;;;;0.73;0.30;;;10.70;99.90;;;;;;4996742;28;20045;-79
2022/03/27 09:07:28;;;;;;;2.50;0.70;;;10.90;99.90;;;;;;4980642;28;20061;-79
2022/03/27 09:09:55;;;;;;;0.52;0.20;;;10.90;99.90;;;;;;4996583;28;20054;-79
2022/03/27 09:12:21;;;;;;;0.10;0.05;;;11.10;99.90;;;;;;4996602;28;20056;-79
2022/03/27 09:14:48;;;;;;;0.30;0.30;;;11.40;99.90;;;;;;4996575;28;20436;-80
2022/03/27 09:17:14;;;;;;;4.03;1.38;;;11.70;99.90;;;;;;4980188;28;20050;-79
2022/03/27 09:19:45;;;;;;;19.45;1.52;;;11.80;99.90;;;;;;4980593;28;20065;-79
2022/03/27 09:22:22;;;;;;;0.65;0.65;;;11.80;99.90;;;;;;4980897;28;20061;-79
2022/03/27 09:24:59;;;;;;;0.60;0.32;;;11.90;99.90;;;;;;4996716;28;20070;-79
2022/03/27 09:27:36;;;;;;;0.98;0.43;;;11.70;99.90;;;;;;4980478;28;20449;-79
2022/03/27 09:30:08;;;;;;;1.35;0.80;;;11.70;99.90;;;;;;5049849;28;20049;-79
2022/03/27 09:32:45;;;;;;;0.60;0.60;;;12.00;99.90;;;;;;5053295;28;20041;-79
2022/03/27 09:35:12;;;;;;;0.30;0.30;;;12.30;99.90;;;;;;5052648;28;20049;-79
2022/03/27 09:37:41;;;;;;;2.72;0.98;;;12.70;99.90;;;;;;5053540;28;20049;-79
2022/03/27 09:40:09;;;;;;;3.40;1.33;;;12.80;99.90;;;;;;5036675;28;20131;-79
2022/03/27 09:42:37;;;;;;;1.42;0.95;;;12.90;99.90;;;;;;5036415;28;20148;-79
2022/03/27 09:45:29;;;;;;;2.08;0.35;;;12.90;99.90;;;;;;5053086;28;20401;-79
2022/03/27 09:48:09;;;;;;;0.08;0.00;;;12.90;99.20;;;;;;5033476;28;20055;-79
2022/03/27 09:50:40;;;;;;;0.65;0.17;;;12.90;98.80;;;;;;5036159;28;20041;-79
2022/03/27 09:53:27;;;;;;;3.50;0.70;;;13.00;98.80;;;;;;5052915;28;20481;-79
2022/03/27 09:55:59;;;;;;;0.82;0.80;;;13.20;98.70;;;;;;5052982;28;20079;-79
2022/03/27 09:58:43;;;;;;;0.20;0.20;;;13.40;98.70;;;;;;5052880;28;20045;-79
2022/03/27 10:01:27;;;;;;;6.53;1.42;;;13.30;98.00;;;;;;5036040;28;20049;-79
2022/03/27 10:04:02;;;;;;;2.70;0.67;;;13.50;97.60;;;;;;5052883;28;20492;-79
2022/03/27 10:06:38;;;;;;;2.15;0.63;;;13.30;95.80;;;;;;5052761;28;20045;-79
2022/03/27 10:09:14;;;;;;;0.60;0.38;;;13.70;98.90;;;;;;5052400;28;20401;-79
2022/03/27 10:11:43;;;;;;;1.83;0.98;;;13.80;95.90;;;;;;5036078;28;20059;-79
2022/03/27 10:14:09;;;;;;;1.27;0.73;;;13.80;96.10;;;;;;5036051;28;20464;-79
2022/03/27 10:16:46;;;;;;;0.20;0.20;;;14.10;96.60;;;;;;5036134;28;20098;-79
2022/03/27 10:19:34;;;;;;;0.40;0.40;;;14.30;96.90;;;;;;5052936;28;20045;-79
2022/03/27 10:22:01;;;;;;;1.45;1.20;;;14.30;95.40;;;;;;5035636;28;20483;-79
2022/03/27 10:24:32;;;;;;;0.25;0.25;;;14.40;95.50;;;;;;5052049;28;20048;-79
2022/03/27 10:27:02;;;;;;;0.43;0.43;;;14.40;93.40;;;;;;5035911;28;20047;-79
2022/03/27 10:29:29;;;;;;;0.10;0.00;;;14.50;93.50;;;;;;5035672;28;20098;-79
2022/03/27 10:31:57;;;;;;;0.05;0.05;;;14.70;93.10;;;;;;5035862;28;20109;-79
2022/03/27 10:34:23;;;;;;;0.85;0.65;;;14.90;92.80;;;;;;5052524;28;20060;-79
2022/03/27 10:37:07;;;;;;;0.10;0.10;;;15.00;92.30;;;;;;5052599;28;20128;-79
2022/03/27 10:39:43;;;;;;;0.03;0.03;;;15.00;91.10;;;;;;5052606;28;20049;-79
2022/03/27 10:42:09;;;;;;;1.88;0.63;;;15.30;91.60;;;;;;5052587;28;20056;-79
2022/03/27 10:44:49;;;;;;;1.10;0.50;;;15.50;91.30;;;;;;5052438;28;20088;-79
2022/03/27 10:47:23;;;;;;;0.15;0.15;;;15.60;90.20;;;;;;5053770;28;20041;-79
2022/03/27 10:50:01;;;;;;;0.10;0.00;;;15.70;89.30;;;;;;5039655;28;20049;-79
2022/03/27 10:52:36;;;;;;;2.22;1.00;;;15.80;90.10;;;;;;5056338;28;20283;-79
2022/03/27 10:55:08;;;;;;;9.02;0.20;;;15.90;89.70;;;;;;5039784;28;20399;-79
2022/03/27 10:57:35;;;;;;;3.63;1.13;;;15.40;83.20;;;;;;5055952;28;20040;-79
2022/03/27 11:00:06;;;;;;;9.95;1.17;;;15.50;84.50;;;;;;5040151;28;20056;-79
2022/03/27 11:02:50;;;;;;;0.45;0.45;;;15.50;86.50;;;;;;5039768;28;20103;-79
2022/03/27 11:05:31;;;;;;;2.53;0.47;;;15.60;86.10;;;;;;5056110;28;20084;-79
2022/03/27 11:08:18;;;;;;;0.28;0.20;;;15.80;84.70;;;;;;5039273;28;20052;-79
2022/03/27 11:10:43;;;;;;;0.10;0.10;;;15.70;82.00;;;;;;5056252;28;20106;-79
2022/03/27 11:13:33;;;;;;;1.30;0.40;;;15.80;83.40;;;;;;5056003;28;20044;-79
2022/03/27 11:16:02;;;;;;;2.03;0.88;;;15.60;80.70;;;;;;5039132;28;20099;-78
2022/03/27 11:18:40;;;;;;;0.20;0.20;;;15.60;81.60;;;;;;5055710;28;20098;-79
2022/03/27 11:21:07;;;;;;;0.65;0.65;;;15.70;82.00;;;;;;5039219;28;20045;-79
2022/03/27 11:23:38;;;;;;;1.75;0.47;;;15.90;80.20;;;;;;5055775;28;20052;-79
2022/03/27 11:26:27;;;;;;;1.08;1.08;;;16.20;79.20;;;;;;5055637;28;20045;-79
2022/03/27 11:28:59;;;;;;;1.70;0.82;;;16.00;79.40;;;;;;4998378;28;20541;-78
2022/03/27 11:31:31;;;;;;;1.75;1.17;;;16.00;79.10;;;;;;4998316;28;20054;-79
2022/03/27 11:34:05;;;;;;;1.55;0.80;;;16.00;78.70;;;;;;4982173;28;20148;-78
2022/03/27 11:36:45;;;;;;;0.20;0.10;;;16.10;79.70;;;;;;4981946;28;20188;-79
2022/03/27 11:39:29;;;;;;;1.45;0.50;;;16.30;81.10;;;;;;4982094;28;20132;-79
2022/03/27 11:42:15;;;;;;;0.60;0.57;;;16.20;77.80;;;;;;4998335;28;20042;-78
2022/03/27 11:47:43;;;;;;;0.00;0.00;;;16.30;76.30;;;;;;4998313;28;20398;-79
2022/03/27 11:50:19;;;;;;;0.20;0.20;;;16.50;76.80;;;;;;4982323;28;20052;-78
2022/03/27 11:52:46;;;;;;;0.00;0.00;;;16.40;75.80;;;;;;4998200;28;20101;-78
2022/03/27 11:55:12;;;;;;;3.65;0.32;;;16.40;75.80;;;;;;4998136;28;20046;-79
2022/03/27 11:57:45;;;;;;;0.55;0.30;;;16.30;75.20;;;;;;4997175;28;20490;-78
2022/03/27 12:00:12;;;;;;;1.75;0.43;;;16.40;75.20;;;;;;4997016;28;20064;-78
2022/03/27 12:02:43;;;;;;;0.38;0.38;;;16.30;74.00;;;;;;4980614;28;20129;-78
2022/03/27 12:05:10;;;;;;;0.15;0.15;;;16.50;74.60;;;;;;5004949;28;20063;-78
2022/03/27 12:07:57;;;;;;;0.82;0.35;;;16.20;70.60;;;;;;5053903;28;20076;-78
2022/03/27 12:10:24;;;;;;;0.10;0.10;;;16.10;73.10;;;;;;5053205;28;20057;-78
2022/03/27 12:12:56;;;;;;;0.10;0.00;;;16.50;76.10;;;;;;5053748;28;20068;-78
2022/03/27 12:15:22;;;;;;;2.28;1.13;;;16.90;75.70;;;;;;5053862;28;20098;-78
2022/03/27 12:17:48;;;;;;;1.65;0.73;;;17.10;72.10;;;;;;5037165;28;20053;-78
2022/03/27 12:20:15;;;;;;;0.00;0.00;;;17.40;73.60;;;;;;5036915;28;20053;-79
2022/03/27 12:22:46;;;;;;;0.15;0.15;;;17.50;72.90;;;;;;5036540;28;20480;-78
2022/03/27 12:25:15;;;;;;;0.10;0.10;;;17.40;70.70;;;;;;5053807;28;20041;-78
2022/03/27 12:30:32;;;;;;;0.05;0.00;;;17.20;71.20;;;;;;5053419;28;20135;-78
2022/03/27 12:33:00;;;;;;;0.85;0.22;;;17.30;71.90;;;;;;5053554;28;20041;-79
2022/03/27 12:35:27;;;;;;;0.63;0.52;;;17.60;71.80;;;;;;5053327;28;20045;-78
2022/03/27 12:37:54;;;;;;;0.20;0.20;;;17.70;70.20;;;;;;5036847;28;20049;-78
2022/03/27 12:40:20;;;;;;;0.90;0.35;;;17.80;70.40;;;;;;5053308;28;20523;-78
2022/03/27 12:42:47;;;;;;;2.10;0.75;;;18.20;69.70;;;;;;5053458;28;20081;-78
2022/03/27 12:45:27;;;;;;;0.40;0.40;;;18.30;68.20;;;;;;5036510;28;20119;-78
2022/03/27 12:47:58;;;;;;;0.05;0.05;;;18.50;67.70;;;;;;5053227;28;20037;-79
2022/03/27 12:50:40;;;;;;;0.43;0.40;;;18.20;67.10;;;;;;5052997;28;20088;-78
2022/03/27 12:53:13;;;;;;;0.57;0.50;;;18.10;67.10;;;;;;5036925;28;20378;-78
2022/03/27 12:55:57;;;;;;;0.08;0.05;;;17.70;66.50;;;;;;5053506;28;20408;-78
2022/03/27 12:58:39;;;;;;;0.52;0.52;;;17.70;66.90;;;;;;5014799;28;1088307;-79
2022/03/27 13:01:17;;;;;;;0.20;0.10;;;18.00;67.10;;;;;;5054033;28;20068;-78
2022/03/27 13:04:04;;;;;;;1.25;0.85;;;17.80;65.50;;;;;;5053869;28;20098;-78
2022/03/27 13:06:43;;;;;;;0.00;0.00;;;17.90;66.20;;;;;;5053898;28;20106;-78
2022/03/27 13:09:10;;;;;;;0.70;0.25;;;18.10;66.50;;;;;;5053421;28;20045;-78
2022/03/27 13:11:44;;;;;;;0.00;0.00;;;18.10;66.30;;;;;;5053147;28;20107;-78
2022/03/27 13:14:10;;;;;;;0.00;0.00;;;18.10;64.20;;;;;;5053802;28;20463;-78
2022/03/27 13:16:42;;;;;;;0.65;0.20;;;17.90;64.20;;;;;;5037113;28;20049;-78